Time;durP1;ratioP1;P1;durP2;ratioP2;P2;SDS_P1;SDS_P2;PMS_P1;PMS_P2;Temp;Humidity;BMP_temperature;BMP_pressure;BME280_temperature;BME280_humidity;BME280_pressure;Samples;Min_cycle;Max_cycle;Signal;HPM_P1;HPM_P2
2022/09/29 00:01:13;;;;;;;;;;;;;;;16.34;72.60;98874.03;5053220;28;846;-70
2022/09/29 00:03:38;;;;;;;;;;;;;;;16.34;72.39;98874.03;5052899;28;1225;-70
2022/09/29 00:06:10;;;;;;;;;;;;;;;16.35;72.29;98881.16;5052646;28;1023;-70
2022/09/29 00:08:35;;;;;;;;;;;;;;;16.35;72.22;98881.16;5052935;28;1059;-70
2022/09/29 00:11:00;;;;;;;;;;;;;;;16.34;72.53;98882.31;5052981;28;805;-70
2022/09/29 00:13:25;;;;;;;;;;;;;;;16.35;72.66;98883.94;5052786;28;1249;-70
2022/09/29 00:15:58;;;;;;;;;;;;;;;16.35;72.26;98886.69;5052615;28;987;-70
2022/09/29 00:18:23;;;;;;;;;;;;;;;16.34;72.15;98876.81;5052776;28;1898;-70
2022/09/29 00:20:55;;;;;;;;;;;;;;;16.34;72.61;98874.84;5052816;28;829;-70
2022/09/29 00:23:22;;;;;;;;;;;;;;;16.33;72.77;98883.50;5055986;28;1208;-70
2022/09/29 00:25:47;;;;;;;;;;;;;;;16.33;72.44;98894.56;5056358;28;884;-70
2022/09/29 00:28:12;;;;;;;;;;;;;;;16.32;72.33;98882.72;5056644;28;995;-70
2022/09/29 00:30:38;;;;;;;;;;;;;;;16.32;72.32;98887.44;5056580;28;687;-71
2022/09/29 00:33:03;;;;;;;;;;;;;;;16.32;72.29;98881.91;5056457;28;1268;-70
2022/09/29 00:35:28;;;;;;;;;;;;;;;16.31;72.35;98883.84;5056413;28;801;-70
2022/09/29 00:37:53;;;;;;;;;;;;;;;16.32;72.48;98884.66;5056145;28;1898;-70
2022/09/29 00:40:18;;;;;;;;;;;;;;;16.30;72.18;98882.25;5056440;28;1019;-70
2022/09/29 00:42:44;;;;;;;;;;;;;;;16.30;72.12;98884.22;5056337;28;1275;-70
2022/09/29 00:45:12;;;;;;;;;;;;;;;16.30;72.33;98885.00;5056407;28;908;-70
2022/09/29 00:47:41;;;;;;;;;;;;;;;16.30;72.37;98889.72;5056005;28;761;-70
2022/09/29 00:50:26;;;;;;;;;;;;;;;16.28;72.42;98882.59;5056327;28;895;-70
2022/09/29 00:52:55;;;;;;;;;;;;;;;16.28;72.14;98879.84;5056040;28;1303;-70
2022/09/29 00:55:32;;;;;;;;;;;;;;;16.29;72.67;98880.66;5056134;28;1050;-70
2022/09/29 00:58:01;;;;;;;;;;;;;;;16.28;72.29;98877.09;5055767;28;1917;-70
2022/09/29 01:00:26;;;;;;;;;;;;;;;16.29;72.07;98877.88;5055985;28;1010;-70
2022/09/29 01:02:55;;;;;;;;;;;;;;;16.28;72.43;98885.38;5055977;28;1204;-70
2022/09/29 01:05:22;;;;;;;;;;;;;;;16.27;72.23;98883.75;5055965;28;817;-70
2022/09/29 01:07:48;;;;;;;;;;;;;;;16.27;72.03;98885.72;5055781;28;971;-70
2022/09/29 01:10:16;;;;;;;;;;;;;;;16.26;72.18;98884.13;5055663;28;1019;-70
2022/09/29 01:12:42;;;;;;;;;;;;;;;16.26;72.31;98890.44;5055849;28;738;-70
2022/09/29 01:15:08;;;;;;;;;;;;;;;16.25;72.28;98883.31;5055655;28;1201;-70
2022/09/29 01:17:33;;;;;;;;;;;;;;;16.24;72.50;98887.25;5055365;28;1897;-70
2022/09/29 01:20:13;;;;;;;;;;;;;;;16.26;72.38;98884.91;5055678;28;943;-70
2022/09/29 01:22:56;;;;;;;;;;;;;;;16.26;72.45;98890.44;5055648;28;746;-70
2022/09/29 01:25:35;;;;;;;;;;;;;;;16.26;72.26;98898.72;5055513;28;908;-70
2022/09/29 01:28:19;;;;;;;;;;;;;;;16.26;72.54;98901.47;5055470;28;864;-70
2022/09/29 01:31:02;;;;;;;;;;;;;;;16.25;72.08;98897.13;5055473;28;903;-70
2022/09/29 01:33:46;;;;;;;;;;;;;;;16.26;72.29;98900.69;5054330;28;1200;-70
2022/09/29 01:36:17;;;;;;;;;;;;;;;16.24;72.12;98898.31;5055074;28;1044;-70
2022/09/29 01:39:09;;;;;;;;;;;;;;;16.23;72.19;98896.69;5055256;28;1902;-70
2022/09/29 01:41:41;;;;;;;;;;;;;;;16.22;72.34;98897.84;5055280;28;991;-70
2022/09/29 01:44:20;;;;;;;;;;;;;;;16.24;72.28;98909.34;5055093;28;1299;-69
2022/09/29 01:46:55;;;;;;;;;;;;;;;16.23;71.95;98906.94;5055114;28;983;-70
2022/09/29 01:49:21;;;;;;;;;;;;;;;16.23;72.11;98904.19;5055182;28;1007;-70
2022/09/29 01:51:53;;;;;;;;;;;;;;;16.23;72.32;98912.47;5055038;28;1003;-70
2022/09/29 01:54:21;;;;;;;;;;;;;;;16.22;72.38;98914.41;5054810;28;1212;-70
2022/09/29 01:56:49;;;;;;;;;;;;;;;16.22;72.15;98906.13;5054618;28;1890;-70
2022/09/29 01:59:18;;;;;;;;;;;;;;;16.22;72.43;98910.84;5054937;28;762;-70
2022/09/29 02:01:44;;;;;;;;;;;;;;;16.21;72.26;98915.56;5054923;28;818;-70
2022/09/29 02:04:23;;;;;;;;;;;;;;;16.20;72.33;98908.44;5054778;28;1225;-70
2022/09/29 02:06:53;;;;;;;;;;;;;;;16.20;72.13;98908.44;5054554;28;1066;-69
2022/09/29 02:09:20;;;;;;;;;;;;;;;16.21;72.34;98904.53;5054657;28;1051;-70
2022/09/29 02:11:49;;;;;;;;;;;;;;;16.21;72.24;98906.47;5054683;28;1015;-71
2022/09/29 02:14:18;;;;;;;;;;;;;;;16.21;71.93;98904.53;5054758;28;1212;-70
2022/09/29 02:16:47;;;;;;;;;;;;;;;16.21;72.33;98904.53;5054362;28;1953;-70
2022/09/29 02:19:15;;;;;;;;;;;;;;;16.19;71.81;98901.31;5054509;28;996;-70
2022/09/29 02:21:41;;;;;;;;;;;;;;;16.20;72.23;98907.63;5054365;28;964;-70
2022/09/29 02:24:06;;;;;;;;;;;;;;;16.20;72.16;98911.19;5054570;28;1188;-70
2022/09/29 02:26:33;;;;;;;;;;;;;;;16.19;72.10;98912.34;5054231;28;885;-70
2022/09/29 02:28:59;;;;;;;;;;;;;;;16.18;72.03;98913.50;5054398;28;798;-71
2022/09/29 02:31:25;;;;;;;;;;;;;;;16.18;72.31;98909.94;5054487;28;705;-70
2022/09/29 02:33:50;;;;;;;;;;;;;;;16.19;72.05;98917.06;5054206;28;1201;-70
2022/09/29 02:36:15;;;;;;;;;;;;;;;16.19;72.07;98915.13;5053984;28;1139;-70
2022/09/29 02:38:43;;;;;;;;;;;;;;;16.19;72.21;98915.13;5054033;28;1905;-70
2022/09/29 02:41:20;;;;;;;;;;;;;;;16.19;72.02;98909.59;5053488;28;840;-70
2022/09/29 02:43:45;;;;;;;;;;;;;;;16.19;72.29;98917.88;5054018;28;1200;-70
2022/09/29 02:46:10;;;;;;;;;;;;;;;16.19;71.86;98908.78;5053649;28;987;-71
2022/09/29 02:48:47;;;;;;;;;;;;;;;16.18;71.93;98921.78;5054084;28;1027;-70
2022/09/29 02:51:19;;;;;;;;;;;;;;;16.17;72.22;98916.63;5054014;28;825;-69
2022/09/29 02:53:50;;;;;;;;;;;;;;;16.17;72.41;98916.63;5054217;28;1194;-70
2022/09/29 02:56:18;;;;;;;;;;;;;;;16.16;72.11;98918.56;5053659;28;904;-70
2022/09/29 02:58:48;;;;;;;;;;;;;;;16.16;72.47;98918.56;5053737;28;1972;-70
2022/09/29 03:01:15;;;;;;;;;;;;;;;16.17;71.80;98917.41;5053758;28;1058;-70
2022/09/29 03:03:40;;;;;;;;;;;;;;;16.18;71.97;98923.75;5053631;28;1222;-70
2022/09/29 03:06:05;;;;;;;;;;;;;;;16.17;72.26;98920.19;5053533;28;809;-70
2022/09/29 03:08:32;;;;;;;;;;;;;;;16.18;72.21;98926.50;5053675;28;893;-70
2022/09/29 03:10:57;;;;;;;;;;;;;;;16.16;72.13;98921.34;5053576;28;836;-70
2022/09/29 03:13:22;;;;;;;;;;;;;;;16.16;72.08;98912.28;5053545;28;1305;-71
2022/09/29 03:15:47;;;;;;;;;;;;;;;16.15;72.25;98924.47;5053343;28;833;-70
2022/09/29 03:18:13;;;;;;;;;;;;;;;16.15;72.06;98917.00;5053531;28;1972;-70
2022/09/29 03:20:38;;;;;;;;;;;;;;;16.16;72.06;98929.63;5053469;28;899;-70
2022/09/29 03:23:03;;;;;;;;;;;;;;;16.15;72.15;98922.53;5053290;28;1288;-70
2022/09/29 03:25:28;;;;;;;;;;;;;;;16.17;72.35;98922.94;5053291;28;968;-70
2022/09/29 03:27:54;;;;;;;;;;;;;;;16.16;71.91;98917.81;5053168;28;809;-70
2022/09/29 03:30:19;;;;;;;;;;;;;;;16.15;72.34;98919.75;5053363;28;885;-70
2022/09/29 03:32:44;;;;;;;;;;;;;;;16.14;72.41;98920.91;5053232;28;1241;-70
2022/09/29 03:35:10;;;;;;;;;;;;;;;16.15;72.13;98927.25;5053367;28;785;-71
2022/09/29 03:37:35;;;;;;;;;;;;;;;16.15;71.92;98932.75;5052944;28;1898;-70
2022/09/29 03:40:01;;;;;;;;;;;;;;;16.14;71.98;98931.97;5053230;28;948;-70
2022/09/29 03:42:27;;;;;;;;;;;;;;;16.15;71.88;98938.28;5053153;28;983;-71
2022/09/29 03:44:52;;;;;;;;;;;;;;;16.14;71.81;98934.72;5051790;28;1406;-70
2022/09/29 03:47:17;;;;;;;;;;;;;;;16.15;72.16;98938.28;5052877;28;962;-71
2022/09/29 03:49:43;;;;;;;;;;;;;;;16.16;71.98;98942.66;5053137;28;856;-71
2022/09/29 03:52:08;;;;;;;;;;;;;;;16.18;72.51;98938.34;5053074;28;805;-69
2022/09/29 03:54:33;;;;;;;;;;;;;;;16.22;72.17;98943.97;5052879;28;1283;-70
2022/09/29 03:56:58;;;;;;;;;;;;;;;16.27;72.33;98940.94;5052455;28;1905;-70
2022/09/29 03:59:23;;;;;;;;;;;;;;;16.33;72.08;98945.06;5057209;28;967;-71
2022/09/29 04:01:48;;;;;;;;;;;;;;;16.37;72.25;98943.16;5057180;28;805;-70
2022/09/29 04:04:13;;;;;;;;;;;;;;;16.43;72.23;98952.78;5057041;28;1173;-70
2022/09/29 04:06:39;;;;;;;;;;;;;;;16.45;72.23;98947.72;5056736;28;758;-70
2022/09/29 04:09:04;;;;;;;;;;;;;;;16.50;71.82;98946.66;5056983;28;944;-71
2022/09/29 04:11:29;;;;;;;;;;;;;;;16.53;71.44;98951.44;5057426;28;880;-70
2022/09/29 04:13:54;;;;;;;;;;;;;;;16.56;71.66;98961.78;5056903;28;1283;-71
2022/09/29 04:16:19;;;;;;;;;;;;;;;16.57;71.25;98957.88;5056844;28;944;-70
2022/09/29 04:18:44;;;;;;;;;;;;;;;16.58;71.40;98956.72;5056859;28;1955;-70
2022/09/29 04:21:10;;;;;;;;;;;;;;;16.57;72.16;98955.91;5056805;28;917;-71
2022/09/29 04:23:35;;;;;;;;;;;;;;;16.60;71.46;98957.13;5056734;28;1296;-70
2022/09/29 04:26:01;;;;;;;;;;;;;;;16.60;71.58;98959.91;5056453;28;975;-70
2022/09/29 04:28:26;;;;;;;;;;;;;;;16.60;72.01;98957.94;5056688;28;817;-70
2022/09/29 04:30:51;;;;;;;;;;;;;;;16.59;71.61;98958.28;5056617;28;1047;-70
2022/09/29 04:33:17;;;;;;;;;;;;;;;16.61;71.55;98969.81;5056594;28;1267;-70
2022/09/29 04:35:42;;;;;;;;;;;;;;;16.60;71.76;98965.44;5056554;28;884;-70
2022/09/29 04:38:08;;;;;;;;;;;;;;;16.59;71.30;98966.56;5056331;28;1893;-70
2022/09/29 04:40:34;;;;;;;;;;;;;;;16.58;71.75;98970.53;5056401;28;892;-71
2022/09/29 04:42:59;;;;;;;;;;;;;;;16.57;71.56;98977.22;5056374;28;1272;-71
2022/09/29 04:45:24;;;;;;;;;;;;;;;16.55;72.07;98979.53;5056454;28;992;-70
2022/09/29 04:47:49;;;;;;;;;;;;;;;16.54;71.91;98970.44;5056046;28;809;-73
2022/09/29 04:50:15;;;;;;;;;;;;;;;16.53;71.48;98976.31;5056586;28;804;-70
2022/09/29 04:52:41;;;;;;;;;;;;;;;16.51;71.47;98971.13;5056243;28;988;-70
2022/09/29 04:55:10;;;;;;;;;;;;;;;16.50;72.17;98971.50;5055941;28;1216;-71
2022/09/29 04:57:35;;;;;;;;;;;;;;;16.49;71.63;98975.44;5055813;28;1959;-71
2022/09/29 05:00:00;;;;;;;;;;;;;;;16.48;71.46;98973.81;5056154;28;892;-70
2022/09/29 05:02:25;;;;;;;;;;;;;;;16.47;71.82;98978.53;5056082;28;884;-71
2022/09/29 05:04:50;;;;;;;;;;;;;;;16.45;71.83;98980.84;5055917;28;1197;-70
2022/09/29 05:07:15;;;;;;;;;;;;;;;16.44;71.76;98984.78;5055735;28;975;-71
2022/09/29 05:09:41;;;;;;;;;;;;;;;16.42;71.50;98983.50;5054498;28;1283;-70
2022/09/29 05:12:06;;;;;;;;;;;;;;;16.42;72.26;98986.28;5054888;28;1427;-70
2022/09/29 05:14:31;;;;;;;;;;;;;;;16.41;71.74;98987.47;5055757;28;1179;-71
2022/09/29 05:16:56;;;;;;;;;;;;;;;16.39;72.12;98990.56;5055394;28;1954;-70
2022/09/29 05:19:21;;;;;;;;;;;;;;;16.37;71.61;98984.59;5055703;28;893;-70
2022/09/29 05:21:47;;;;;;;;;;;;;;;16.38;71.66;98990.91;5055754;28;856;-71
2022/09/29 05:24:12;;;;;;;;;;;;;;;16.38;71.90;98988.16;5055498;28;1177;-70
2022/09/29 05:26:37;;;;;;;;;;;;;;;16.38;72.09;98990.91;5055326;28;848;-70
2022/09/29 05:29:02;;;;;;;;;;;;;;;16.38;72.12;98983.44;5054292;28;1186;-70
2022/09/29 05:31:27;;;;;;;;;;;;;;;16.40;71.68;98986.66;5055458;28;928;-70
2022/09/29 05:33:53;;;;;;;;;;;;;;;16.41;72.21;98991.03;5055306;28;1189;-70
2022/09/29 05:36:19;;;;;;;;;;;;;;;16.44;71.54;98986.72;5055123;28;1007;-70
2022/09/29 05:38:44;;;;;;;;;;;;;;;16.45;71.63;98997.44;5055152;28;1956;-71
2022/09/29 05:41:10;;;;;;;;;;;;;;;16.47;71.93;98997.88;5055266;28;880;-70
2022/09/29 05:43:36;;;;;;;;;;;;;;;16.50;71.79;99001.91;5055126;28;1199;-70
2022/09/29 05:46:05;;;;;;;;;;;;;;;16.51;71.58;98995.19;5054997;28;1038;-70
2022/09/29 05:48:30;;;;;;;;;;;;;;;16.53;71.58;98995.63;5055004;28;1297;-70
2022/09/29 05:50:56;;;;;;;;;;;;;;;16.56;71.38;98997.69;5055174;28;1050;-71
2022/09/29 05:53:21;;;;;;;;;;;;;;;16.56;72.10;98992.19;5054773;28;1205;-71
2022/09/29 05:55:46;;;;;;;;;;;;;;;16.57;71.62;98999.31;5054822;28;845;-70
2022/09/29 05:58:11;;;;;;;;;;;;;;;16.59;71.96;99002.50;5055024;28;1910;-71
2022/09/29 06:00:37;;;;;;;;;;;;;;;16.60;71.91;99009.63;5055058;28;841;-71
2022/09/29 06:03:02;;;;;;;;;;;;;;;16.61;71.92;99005.75;5054860;28;1319;-70
2022/09/29 06:05:27;;;;;;;;;;;;;;;16.61;71.64;99008.50;5054935;28;876;-69
2022/09/29 06:07:53;;;;;;;;;;;;;;;16.61;71.75;99014.03;5054499;28;976;-71
2022/09/29 06:10:18;;;;;;;;;;;;;;;16.61;71.29;99008.50;5054773;28;884;-71
2022/09/29 06:12:44;;;;;;;;;;;;;;;16.60;71.30;99017.91;5054559;28;1303;-70
2022/09/29 06:15:09;;;;;;;;;;;;;;;16.60;71.87;99017.91;5054683;28;808;-71
2022/09/29 06:17:34;;;;;;;;;;;;;;;16.59;71.35;99010.78;5054226;28;1893;-70
2022/09/29 06:20:00;;;;;;;;;;;;;;;16.58;71.48;99015.53;5052818;28;1298;-70
2022/09/29 06:22:26;;;;;;;;;;;;;;;16.57;71.20;99016.69;5054527;28;991;-70
2022/09/29 06:24:51;;;;;;;;;;;;;;;16.56;71.21;99017.84;5054495;28;1217;-71
2022/09/29 06:27:16;;;;;;;;;;;;;;;16.55;71.84;99019.00;5054222;28;960;-70
2022/09/29 06:29:41;;;;;;;;;;;;;;;16.55;71.53;99024.53;5054413;28;996;-70
2022/09/29 06:32:07;;;;;;;;;;;;;;;16.54;71.53;99016.59;5054415;28;880;-70
2022/09/29 06:34:32;;;;;;;;;;;;;;;16.52;72.03;99016.13;5054264;28;1284;-70
2022/09/29 06:39:40;;;;;;;;;;;;;;;16.50;71.23;99024.75;5054571;28;644;-70
2022/09/29 06:42:05;;;;;;;;;;;;;;;16.49;71.47;99025.94;5054232;28;896;-70
2022/09/29 06:44:31;;;;;;;;;;;;;;;16.47;71.28;99025.50;5054165;28;1173;-71
2022/09/29 06:46:56;;;;;;;;;;;;;;;16.46;71.78;99025.84;5053874;28;785;-71
2022/09/29 06:49:22;;;;;;;;;;;;;;;16.46;71.89;99020.31;5054068;28;896;-71
2022/09/29 06:51:48;;;;;;;;;;;;;;;16.46;71.79;99025.84;5053931;28;904;-71
2022/09/29 06:54:14;;;;;;;;;;;;;;;16.45;71.60;99024.25;5053970;28;1200;-70
2022/09/29 06:56:39;;;;;;;;;;;;;;;15.33;64.11;99020.66;5053788;28;806;-69
2022/09/29 06:59:04;;;;;;;;;;;;;;;14.38;68.72;99025.50;5053779;28;1898;-70
2022/09/29 07:01:30;;;;;;;;;;;;;;;14.62;71.38;99016.47;5053804;28;877;-70
2022/09/29 07:03:55;;;;;;;;;;;;;;;15.05;72.51;99026.13;5053694;28;1221;-70
2022/09/29 07:06:20;;;;;;;;;;;;;;;15.40;72.18;99032.69;5053861;28;943;-70
2022/09/29 07:08:46;;;;;;;;;;;;;;;15.67;71.72;99022.91;5053708;28;846;-70
2022/09/29 07:11:11;;;;;;;;;;;;;;;15.85;71.36;99028.91;5053675;28;928;-70
2022/09/29 07:13:37;;;;;;;;;;;;;;;15.98;71.60;99024.16;5053813;28;1197;-70
2022/09/29 07:16:09;;;;;;;;;;;;;;;16.08;71.26;99032.72;5049070;28;2346;-70
2022/09/29 07:18:36;;;;;;;;;;;;;;;16.16;70.93;99031.75;5049123;28;1902;-70
2022/09/29 07:21:02;;;;;;;;;;;;;;;16.23;70.69;99033.94;5053337;28;735;-70
2022/09/29 07:23:27;;;;;;;;;;;;;;;16.28;70.50;99031.72;5053392;28;1185;-70
2022/09/29 07:25:53;;;;;;;;;;;;;;;16.36;70.78;99034.66;5053125;28;810;-70
2022/09/29 07:28:18;;;;;;;;;;;;;;;16.39;70.44;99031.19;5053523;28;798;-70
2022/09/29 07:30:43;;;;;;;;;;;;;;;16.42;70.30;99031.25;5053107;28;924;-70
2022/09/29 07:33:09;;;;;;;;;;;;;;;16.46;70.10;99034.13;5052662;28;1202;-70
2022/09/29 07:35:34;;;;;;;;;;;;;;;16.49;70.26;99037.00;5053154;28;786;-70
2022/09/29 07:37:59;;;;;;;;;;;;;;;16.52;70.29;99039.03;5052920;28;1894;-71
2022/09/29 07:40:25;;;;;;;;;;;;;;;16.56;70.10;99041.91;5053144;28;944;-71
2022/09/29 07:42:50;;;;;;;;;;;;;;;16.57;70.16;99040.75;5053088;28;1355;-70
2022/09/29 07:45:16;;;;;;;;;;;;;;;16.60;70.06;99045.53;5053161;28;908;-71
2022/09/29 07:47:41;;;;;;;;;;;;;;;16.61;70.11;99047.19;5052969;28;802;-70
2022/09/29 07:50:06;;;;;;;;;;;;;;;16.62;70.59;99046.81;5053063;28;821;-71
2022/09/29 07:52:32;;;;;;;;;;;;;;;16.63;70.20;99044.88;5053384;28;809;-70
2022/09/29 07:54:57;;;;;;;;;;;;;;;16.65;69.96;99053.59;5052966;28;1248;-70
2022/09/29 07:57:22;;;;;;;;;;;;;;;16.65;70.58;99056.38;5052721;28;1894;-70
2022/09/29 07:59:47;;;;;;;;;;;;;;;16.66;70.59;99051.66;5053079;28;997;-70
2022/09/29 08:02:12;;;;;;;;;;;;;;;16.66;70.34;99055.22;5052924;28;873;-70
2022/09/29 08:04:38;;;;;;;;;;;;;;;16.67;70.74;99056.81;5053365;28;1228;-71
2022/09/29 08:07:03;;;;;;;;;;;;;;;16.67;69.77;99061.53;5052820;28;896;-70
2022/09/29 08:09:28;;;;;;;;;;;;;;;16.68;70.40;99060.38;5052951;28;1043;-69
2022/09/29 08:11:53;;;;;;;;;;;;;;;16.67;70.23;99065.13;5052945;28;804;-70
2022/09/29 08:14:18;;;;;;;;;;;;;;;16.67;70.63;99065.13;5052872;28;1282;-70
2022/09/29 08:16:43;;;;;;;;;;;;;;;16.67;70.13;99070.63;5052597;28;988;-70
2022/09/29 08:19:09;;;;;;;;;;;;;;;16.67;70.15;99076.16;5052752;28;1898;-70
2022/09/29 08:21:35;;;;;;;;;;;;;;;16.68;70.58;99068.66;5053197;28;694;-70
2022/09/29 08:24:03;;;;;;;;;;;;;;;16.66;69.98;99062.69;5052736;28;1216;-70
2022/09/29 08:26:30;;;;;;;;;;;;;;;16.64;70.39;99060.28;5052563;28;825;-70
2022/09/29 08:28:55;;;;;;;;;;;;;;;16.63;70.45;99075.25;5052794;28;995;-70
2022/09/29 08:31:21;;;;;;;;;;;;;;;16.63;70.57;99075.25;5052700;28;706;-70
2022/09/29 08:33:48;;;;;;;;;;;;;;;16.60;70.91;99068.44;5052629;28;1215;-70
2022/09/29 08:36:15;;;;;;;;;;;;;;;16.59;70.66;99075.13;5052416;28;869;-70
2022/09/29 08:38:43;;;;;;;;;;;;;;;16.58;70.08;99079.06;5052690;28;1929;-70
2022/09/29 08:41:26;;;;;;;;;;;;;;;16.58;70.30;99078.25;5052956;28;825;-70
2022/09/29 08:43:53;;;;;;;;;;;;;;;16.58;70.27;99086.56;5054958;28;1194;-70
2022/09/29 08:46:24;;;;;;;;;;;;;;;16.57;70.50;99084.94;5055998;28;892;-70
2022/09/29 08:48:50;;;;;;;;;;;;;;;16.57;70.07;99088.50;5056355;28;911;-70
2022/09/29 08:51:40;;;;;;;;;;;;;;;16.57;70.06;99087.69;5056256;28;980;-70
2022/09/29 08:54:12;;;;;;;;;;;;;;;16.57;70.36;99088.50;5056630;28;1185;-71
2022/09/29 08:56:37;;;;;;;;;;;;;;;16.58;70.75;99081.03;5055847;28;972;-71
2022/09/29 08:59:03;;;;;;;;;;;;;;;16.58;69.96;99083.78;5056022;28;1943;-71
2022/09/29 09:01:31;;;;;;;;;;;;;;;16.60;70.00;99089.72;5056075;28;876;-71
2022/09/29 09:04:06;;;;;;;;;;;;;;;16.63;70.65;99092.63;5055967;28;1278;-71
2022/09/29 09:06:40;;;;;;;;;;;;;;;16.65;70.44;99095.06;5055767;28;1109;-71
2022/09/29 09:09:12;;;;;;;;;;;;;;;16.67;70.84;99086.41;5055461;28;1014;-70
2022/09/29 09:11:49;;;;;;;;;;;;;;;16.68;70.30;99088.78;5055928;28;1074;-72
2022/09/29 09:14:23;;;;;;;;;;;;;;;16.71;70.17;99088.09;5055825;28;1181;-71
2022/09/29 09:17:06;;;;;;;;;;;;;;;16.72;70.10;99088.91;5055882;28;664;-71
2022/09/29 09:19:32;;;;;;;;;;;;;;;16.74;70.41;99090.16;5055700;28;1059;-70
2022/09/29 09:22:04;;;;;;;;;;;;;;;16.76;70.08;99081.53;5055713;28;991;-71
2022/09/29 09:24:38;;;;;;;;;;;;;;;16.76;69.64;99090.59;5054415;28;1357;-71
2022/09/29 09:27:03;;;;;;;;;;;;;;;16.78;70.28;99081.94;5055472;28;1015;-71
2022/09/29 09:29:34;;;;;;;;;;;;;;;16.80;69.87;99087.91;5055613;28;852;-71
2022/09/29 09:32:00;;;;;;;;;;;;;;;16.80;70.43;99098.97;5055530;28;999;-71
2022/09/29 09:34:36;;;;;;;;;;;;;;;16.81;70.24;99097.81;5055396;28;1278;-71
2022/09/29 09:37:19;;;;;;;;;;;;;;;16.80;70.26;99091.50;5053845;28;1894;-71
2022/09/29 09:40:03;;;;;;;;;;;;;;;16.81;69.86;99098.63;5055402;28;893;-71
2022/09/29 09:42:33;;;;;;;;;;;;;;;16.82;70.42;99099.44;5055298;28;801;-71
2022/09/29 09:45:04;;;;;;;;;;;;;;;16.82;70.59;99089.19;5055192;28;1265;-71
2022/09/29 09:47:33;;;;;;;;;;;;;;;16.82;69.87;99085.63;5055147;28;810;-71
2022/09/29 09:50:15;;;;;;;;;;;;;;;16.82;70.50;99089.19;5055175;28;908;-71
2022/09/29 09:52:42;;;;;;;;;;;;;;;16.83;70.46;99090.78;5055141;28;868;-71
2022/09/29 09:55:23;;;;;;;;;;;;;;;16.82;70.59;99085.63;5053901;28;1260;-71
2022/09/29 09:58:07;;;;;;;;;;;;;;;16.82;70.32;99091.13;5054785;28;1897;-71
2022/09/29 10:00:43;;;;;;;;;;;;;;;16.81;70.49;99097.81;5055037;28;824;-71
2022/09/29 10:03:09;;;;;;;;;;;;;;;16.81;70.73;99086.75;5054917;28;1208;-72
2022/09/29 10:05:37;;;;;;;;;;;;;;;16.80;70.12;99096.22;5054859;28;774;-71
2022/09/29 10:08:04;;;;;;;;;;;;;;;16.80;70.44;99097.00;5054648;28;895;-71
2022/09/29 10:10:30;;;;;;;;;;;;;;;16.80;70.10;99096.22;5054774;28;881;-71
2022/09/29 10:13:00;;;;;;;;;;;;;;;16.79;70.74;99100.13;5054654;28;1295;-70
2022/09/29 10:15:30;;;;;;;;;;;;;;;16.78;70.78;99093.00;5054741;28;991;-70
2022/09/29 10:18:05;;;;;;;;;;;;;;;16.79;69.82;99094.59;5054208;28;1894;-70
2022/09/29 10:20:34;;;;;;;;;;;;;;;16.77;69.97;99092.19;5054585;28;959;-70
2022/09/29 10:23:18;;;;;;;;;;;;;;;16.77;70.89;99094.16;5054738;28;1196;-70
2022/09/29 10:25:50;;;;;;;;;;;;;;;16.76;70.54;99101.63;5054412;28;825;-70
2022/09/29 10:28:16;;;;;;;;;;;;;;;16.76;70.11;99095.34;5054441;28;892;-70
2022/09/29 10:30:42;;;;;;;;;;;;;;;16.76;70.11;99096.09;5054412;28;873;-70
2022/09/29 10:33:12;;;;;;;;;;;;;;;16.76;70.86;99096.09;5054252;28;1190;-70
2022/09/29 10:35:39;;;;;;;;;;;;;;;16.76;70.71;99090.59;5054348;28;1007;-70
2022/09/29 10:38:06;;;;;;;;;;;;;;;16.77;70.14;99091.38;5054034;28;1961;-70
2022/09/29 10:40:32;;;;;;;;;;;;;;;16.76;70.12;99090.59;5054263;28;1003;-70
2022/09/29 10:42:57;;;;;;;;;;;;;;;16.76;70.47;99096.09;5053941;28;1204;-70
2022/09/29 10:45:24;;;;;;;;;;;;;;;16.76;70.41;99095.34;5054351;28;867;-70
2022/09/29 10:47:55;;;;;;;;;;;;;;;16.76;70.83;99095.34;5053808;28;876;-70
2022/09/29 10:50:22;;;;;;;;;;;;;;;16.76;70.30;99104.41;5054056;28;992;-70
2022/09/29 10:52:52;;;;;;;;;;;;;;;16.75;70.77;99097.28;5053896;28;1279;-70
2022/09/29 10:55:18;;;;;;;;;;;;;;;16.77;70.12;99094.16;5053847;28;959;-70
2022/09/29 10:57:44;;;;;;;;;;;;;;;16.77;70.39;99097.72;5053631;28;1953;-70
2022/09/29 11:00:24;;;;;;;;;;;;;;;16.78;70.22;99099.31;5053917;28;956;-70
2022/09/29 11:02:50;;;;;;;;;;;;;;;16.78;70.76;99096.56;5053778;28;1296;-70
2022/09/29 11:05:18;;;;;;;;;;;;;;;16.80;70.51;99101.75;5053749;28;881;-70
2022/09/29 11:07:45;;;;;;;;;;;;;;;16.80;70.38;99107.25;5053416;28;889;-70
2022/09/29 11:10:26;;;;;;;;;;;;;;;16.80;70.00;99105.31;5053599;28;904;-70
2022/09/29 11:12:51;;;;;;;;;;;;;;;16.81;70.63;99109.69;5053447;28;1205;-70
2022/09/29 11:15:38;;;;;;;;;;;;;;;16.83;69.99;99106.56;5053530;28;620;-70
2022/09/29 11:18:16;;;;;;;;;;;;;;;16.83;69.88;99107.38;5053251;28;1963;-71
2022/09/29 11:20:42;;;;;;;;;;;;;;;16.85;70.29;99107.00;5053452;28;841;-70
2022/09/29 11:23:24;;;;;;;;;;;;;;;16.87;70.69;99107.44;5053385;28;1187;-70
2022/09/29 11:26:04;;;;;;;;;;;;;;;16.87;70.35;99104.69;5053228;28;885;-70
2022/09/29 11:28:39;;;;;;;;;;;;;;;16.89;70.01;99117.00;5053447;28;873;-70
2022/09/29 11:31:10;;;;;;;;;;;;;;;16.88;70.69;99118.16;5053388;28;1000;-70
2022/09/29 11:33:51;;;;;;;;;;;;;;;16.90;70.06;99121.38;5053254;28;1328;-70
2022/09/29 11:36:25;;;;;;;;;;;;;;;16.91;69.99;99113.88;5052967;28;863;-70
2022/09/29 11:39:03;;;;;;;;;;;;;;;16.93;70.05;99117.88;5053240;28;1906;-70
2022/09/29 11:41:39;;;;;;;;;;;;;;;16.94;70.00;99118.69;5053113;28;837;-70
2022/09/29 11:44:13;;;;;;;;;;;;;;;16.93;69.68;99106.00;5053160;28;1230;-70
2022/09/29 11:46:38;;;;;;;;;;;;;;;16.96;70.72;99110.84;5051612;28;1211;-70
2022/09/29 11:49:03;;;;;;;;;;;;;;;16.96;69.98;99108.88;5053286;28;858;-70
2022/09/29 11:51:48;;;;;;;;;;;;;;;16.97;70.64;99124.31;5051936;28;1545;-70
2022/09/29 11:54:16;;;;;;;;;;;;;;;16.98;70.32;99116.81;5052961;28;1695;-70
2022/09/29 11:57:00;;;;;;;;;;;;;;;16.98;70.70;99128.69;5052710;28;881;-70
2022/09/29 11:59:37;;;;;;;;;;;;;;;16.99;70.73;99124.75;5053134;28;825;-70
2022/09/29 12:02:02;;;;;;;;;;;;;;;16.99;69.70;99119.22;5053031;28;825;-70
2022/09/29 12:04:36;;;;;;;;;;;;;;;17.00;70.88;99129.13;5052932;28;1276;-70
2022/09/29 12:07:16;;;;;;;;;;;;;;;16.99;70.91;99118.44;5052803;28;824;-70
2022/09/29 12:09:56;;;;;;;;;;;;;;;16.98;70.44;99114.84;5053082;28;951;-70
2022/09/29 12:12:21;;;;;;;;;;;;;;;16.98;70.58;99120.38;5052937;28;813;-70
2022/09/29 12:14:46;;;;;;;;;;;;;;;16.98;70.03;99125.09;5052779;28;1303;-70
2022/09/29 12:17:13;;;;;;;;;;;;;;;16.97;70.79;99118.78;5052650;28;1961;-70
2022/09/29 12:19:39;;;;;;;;;;;;;;;16.97;70.39;99117.97;5056621;28;1101;-69
2022/09/29 12:22:07;;;;;;;;;;;;;;;16.98;70.97;99127.88;5057156;28;844;-70
2022/09/29 12:24:43;;;;;;;;;;;;;;;16.96;70.81;99116.38;5056699;28;1141;-70
2022/09/29 12:27:21;;;;;;;;;;;;;;;16.96;71.00;99113.59;5056457;28;812;-70
2022/09/29 12:29:55;;;;;;;;;;;;;;;16.97;70.06;99116.00;5056781;28;892;-70
2022/09/29 12:32:24;;;;;;;;;;;;;;;16.96;70.57;99124.66;5056774;28;861;-70
2022/09/29 12:34:57;;;;;;;;;;;;;;;16.96;70.23;99113.59;5056525;28;1296;-70
2022/09/29 12:37:22;;;;;;;;;;;;;;;16.96;69.97;99125.47;5056292;28;1965;-70
2022/09/29 12:39:50;;;;;;;;;;;;;;;16.95;70.85;99126.63;5056370;28;762;-70
2022/09/29 12:42:36;;;;;;;;;;;;;;;16.96;70.60;99122.69;5056473;28;1003;-70
2022/09/29 12:45:07;;;;;;;;;;;;;;;16.97;70.70;99121.53;5056415;28;1165;-71
2022/09/29 12:47:35;;;;;;;;;;;;;;;16.96;69.91;99122.69;5056251;28;865;-70
2022/09/29 12:50:04;;;;;;;;;;;;;;;16.97;70.23;99126.25;5056223;28;868;-70
2022/09/29 12:52:39;;;;;;;;;;;;;;;16.97;70.54;99124.31;5056392;28;809;-70
2022/09/29 12:55:08;;;;;;;;;;;;;;;16.98;70.94;99122.34;5056125;28;1279;-70
2022/09/29 12:57:33;;;;;;;;;;;;;;;16.98;70.20;99116.81;5055884;28;1902;-70
2022/09/29 13:00:01;;;;;;;;;;;;;;;16.98;70.88;99123.16;5056095;28;974;-71
2022/09/29 13:02:54;;;;;;;;;;;;;;;17.00;70.34;99120.84;5055995;28;848;-71
2022/09/29 13:05:19;;;;;;;;;;;;;;;17.00;70.92;99120.84;5056163;28;829;-70
2022/09/29 13:07:50;;;;;;;;;;;;;;;17.00;70.62;99118.06;5055768;28;817;-71
2022/09/29 13:10:15;;;;;;;;;;;;;;;17.01;70.99;99118.88;5055888;28;951;-70
2022/09/29 13:12:59;;;;;;;;;;;;;;;17.01;70.83;99122.41;5055940;28;979;-70